Terminal Aerodrome Forecast
Issued by NWS

Home | Current Version | Previous Version | Text Only | Print | Product List | Glossary On
Versions: 1 2 3 4 5 6 7 8 9 10 11 12 13 14 15 16 17 18 19 20 21 22 23 24
167
FTUS43 KPAH 161131
TAFCGI
TAF
KCGI 161131Z 1612/1712 08004KT 1/2SM FG OVC002
     FM161700 17009KT 2SM -SHRA BR OVC005
     FM162200 17012KT 3SM -SHRA BR VCTS OVC010CB
      TEMPO 1700/1704 2SM -TSRA BR OVC008CB
     FM170700 23010KT 4SM BR OVC015=

USA.gov is the U.S. government's official web portal to all federal, state and local government web resources and services.